createdAt,value
2019-04-20T00:01:46.736Z,4.80
2019-04-20T00:05:10.998Z,4.70
2019-04-20T00:08:37.688Z,4.60
2019-04-20T00:12:10.312Z,4.60
2019-04-20T00:15:26.071Z,4.60
2019-04-20T00:18:55.438Z,4.50
2019-04-20T00:22:41.093Z,4.50
2019-04-20T00:26:32.254Z,4.50
2019-04-20T00:29:58.824Z,4.60
2019-04-20T00:33:25.756Z,4.50
2019-04-20T00:36:34.911Z,4.40
2019-04-20T00:39:59.564Z,4.30
2019-04-20T00:43:28.105Z,4.20
2019-04-20T00:47:01.994Z,4.30
2019-04-20T00:50:28.217Z,4.20
2019-04-20T00:53:44.954Z,4.10
2019-04-20T00:57:20.374Z,4.10
2019-04-20T01:00:48.401Z,4.10
2019-04-20T01:04:16.335Z,4.20
2019-04-20T01:07:37.149Z,4.20
2019-04-20T01:10:55.715Z,4.20
2019-04-20T01:14:25.736Z,4.10
2019-04-20T01:17:43.184Z,4.00
2019-04-20T01:21:14.878Z,4.00
2019-04-20T01:24:37.150Z,4.00
2019-04-20T01:28:16.322Z,3.90
2019-04-20T01:31:33.638Z,3.90
2019-04-20T01:35:01.491Z,3.90
2019-04-20T01:38:30.733Z,3.90
2019-04-20T01:41:39.751Z,3.90
2019-04-20T01:45:10.284Z,3.80
2019-04-20T01:48:33.948Z,3.90
2019-04-20T01:52:04.891Z,3.80
2019-04-20T01:55:45.652Z,3.80
2019-04-20T01:59:10.522Z,3.70
2019-04-20T02:02:43.618Z,3.70
2019-04-20T02:06:16.699Z,3.70
2019-04-20T02:09:43.347Z,3.70
2019-04-20T02:13:05.829Z,3.60
2019-04-20T02:16:35.465Z,3.60
2019-04-20T02:20:10.712Z,3.70
2019-04-20T02:23:32.999Z,3.70
2019-04-20T02:26:47.143Z,3.60
2019-04-20T02:30:53.926Z,3.70
2019-04-20T02:34:27.105Z,3.70
2019-04-20T02:37:56.858Z,3.60
2019-04-20T02:41:12.054Z,3.60
2019-04-20T02:44:40.409Z,3.60
2019-04-20T02:48:06.538Z,3.60
2019-04-20T02:51:35.452Z,3.50
2019-04-20T02:55:09.191Z,3.50
2019-04-20T02:58:15.403Z,3.40
2019-04-20T03:01:33.512Z,3.40
2019-04-20T03:04:49.144Z,3.30
2019-04-20T03:08:22.380Z,3.30
2019-04-20T03:11:58.274Z,3.30
2019-04-20T03:15:20.128Z,3.40
2019-04-20T03:18:40.007Z,3.30
2019-04-20T03:22:09.500Z,3.30
2019-04-20T03:25:55.871Z,3.40
2019-04-20T03:29:13.077Z,3.40
2019-04-20T03:33:02.456Z,3.50
2019-04-20T03:36:18.373Z,3.70
2019-04-20T03:39:31.326Z,3.60
2019-04-20T03:42:43.377Z,3.70
2019-04-20T03:46:11.660Z,3.70
2019-04-20T03:50:14.090Z,3.70
2019-04-20T03:53:34.451Z,3.70
2019-04-20T03:56:54.384Z,3.50
2019-04-20T04:00:30.563Z,3.50
2019-04-20T04:04:06.666Z,3.60
2019-04-20T04:07:18.045Z,3.70
2019-04-20T04:10:51.541Z,3.70
2019-04-20T04:13:58.774Z,3.80
2019-04-20T04:17:28.783Z,3.90
2019-04-20T04:20:54.030Z,4.10
2019-04-20T04:24:27.129Z,4.30
2019-04-20T04:27:57.044Z,4.40
2019-04-20T04:31:25.943Z,4.40
2019-04-20T04:34:48.655Z,4.40
2019-04-20T04:38:12.754Z,4.60
2019-04-20T04:41:39.962Z,4.70
2019-04-20T04:44:58.392Z,4.80
2019-04-20T04:48:21.466Z,4.90
2019-04-20T04:51:49.005Z,5.10
2019-04-20T04:55:18.841Z,5.20
2019-04-20T04:58:31.997Z,5.40
2019-04-20T05:01:58.161Z,5.60
2019-04-20T05:05:49.352Z,5.70
2019-04-20T05:09:00.101Z,5.90
2019-04-20T05:12:23.950Z,6.10
2019-04-20T05:15:59.306Z,6.40
2019-04-20T05:19:33.328Z,6.70
2019-04-20T05:23:07.727Z,7.20
2019-04-20T05:26:40.872Z,7.70
2019-04-20T05:29:43.085Z,8.40
2019-04-20T05:33:19.940Z,9.00
2019-04-20T05:37:11.047Z,9.70
2019-04-20T05:40:21.877Z,10.60
2019-04-20T05:43:41.189Z,11.50
2019-04-20T05:47:11.265Z,12.50
2019-04-20T05:50:36.409Z,13.70
2019-04-20T05:54:04.459Z,15.40
2019-04-20T05:57:30.210Z,19.10
2019-04-20T06:01:00.416Z,23.40
2019-04-20T06:04:30.069Z,25.60
2019-04-20T06:07:48.714Z,27.60
2019-04-20T06:11:19.315Z,29.90
2019-04-20T06:14:43.143Z,31.10
2019-04-20T06:18:13.254Z,32.40
2019-04-20T06:21:41.458Z,33.10
2019-04-20T06:28:30.161Z,33.40
2019-04-20T06:32:06.905Z,34.10
2019-04-20T06:35:40.852Z,34.60
2019-04-20T06:42:31.103Z,34.30
2019-04-20T06:45:51.312Z,33.30
2019-04-20T06:49:19.649Z,32.60
2019-04-20T06:52:34.095Z,32.10
2019-04-20T06:56:14.195Z,31.00
2019-04-20T06:59:31.774Z,29.20
2019-04-20T07:02:56.374Z,27.50
2019-04-20T07:06:37.825Z,27.90
2019-04-20T07:10:05.171Z,27.30
2019-04-20T07:13:09.197Z,28.00
2019-04-20T07:16:46.482Z,28.50
2019-04-20T07:20:19.647Z,28.50
2019-04-20T07:23:53.415Z,30.10
2019-04-20T07:27:16.961Z,30.90
2019-04-20T07:30:42.142Z,30.20
2019-04-20T07:34:04.695Z,31.50
2019-04-20T07:40:56.197Z,34.60
2019-04-20T07:44:27.023Z,36.00
2019-04-20T07:51:04.873Z,36.00
2019-04-20T07:54:56.085Z,35.80
2019-04-20T07:57:59.023Z,36.00
2019-04-20T08:01:38.625Z,36.70
2019-04-20T08:05:08.204Z,35.90
2019-04-20T08:08:34.830Z,37.60
2019-04-20T08:12:14.103Z,36.90
2019-04-20T08:15:42.754Z,37.90
2019-04-20T08:19:09.998Z,39.40
2019-04-20T08:22:27.026Z,39.50
2019-04-20T08:25:41.890Z,41.10
2019-04-20T08:29:16.811Z,41.40
2019-04-20T08:33:05.928Z,40.20
2019-04-20T08:36:43.260Z,39.20
2019-04-20T08:44:21.718Z,38.10
2019-04-20T08:47:07.308Z,37.10
2019-04-20T08:53:41.842Z,36.50
2019-04-20T08:56:55.306Z,37.50
2019-04-20T09:00:18.270Z,35.80
2019-04-20T09:03:49.633Z,35.00
2019-04-20T09:07:17.458Z,36.30
2019-04-20T09:10:48.180Z,36.70
2019-04-20T09:14:03.876Z,35.80
2019-04-20T09:17:41.004Z,37.70
2019-04-20T09:21:04.371Z,36.60
2019-04-20T09:24:43.554Z,37.10
2019-04-20T09:28:18.863Z,36.60
2019-04-20T09:31:50.263Z,38.40
2019-04-20T09:35:20.582Z,38.80
2019-04-20T09:38:56.720Z,36.50
2019-04-20T09:42:20.273Z,35.50
2019-04-20T09:45:48.550Z,38.80
2019-04-20T09:49:21.288Z,36.90
2019-04-20T09:52:51.312Z,37.70
2019-04-20T09:56:18.231Z,37.20
2019-04-20T09:59:44.653Z,37.80
2019-04-20T10:02:54.713Z,36.60
2019-04-20T10:06:24.339Z,37.60
2019-04-20T10:09:45.616Z,39.50
2019-04-20T10:13:10.020Z,38.00
2019-04-20T10:16:35.679Z,38.10
2019-04-20T10:20:02.531Z,39.80
2019-04-20T10:23:25.044Z,39.10
2019-04-20T10:26:50.364Z,40.20
2019-04-20T10:30:14.660Z,39.70
2019-04-20T10:33:39.614Z,35.80
2019-04-20T10:37:05.939Z,36.80
2019-04-20T10:40:44.977Z,36.00
2019-04-20T10:43:56.614Z,35.90
2019-04-20T10:47:21.060Z,35.50
2019-04-20T10:50:45.429Z,34.30
2019-04-20T10:54:30.272Z,33.90
2019-04-20T10:57:55.487Z,36.00
2019-04-20T11:01:19.916Z,34.70
2019-04-20T11:04:44.371Z,36.40
2019-04-20T11:08:10.673Z,36.10
2019-04-20T11:11:35.893Z,36.00
2019-04-20T11:15:00.623Z,36.00
2019-04-20T11:18:25.113Z,35.70
2019-04-20T11:21:50.241Z,36.40
2019-04-20T11:25:14.480Z,34.00
2019-04-20T11:28:39.888Z,32.90
2019-04-20T11:32:05.252Z,32.00
2019-04-20T11:35:34.434Z,32.40
2019-04-20T11:38:54.792Z,32.10
2019-04-20T11:42:19.529Z,32.60
2019-04-20T11:45:44.616Z,31.10
2019-04-20T11:49:09.678Z,31.80
2019-04-20T11:52:38.792Z,33.00
2019-04-20T11:56:00.420Z,32.40
2019-04-20T11:59:25.387Z,32.80
2019-04-20T12:03:00.309Z,32.80
2019-04-20T12:06:23.224Z,34.20
2019-04-20T12:09:47.367Z,33.90
2019-04-20T12:13:14.720Z,34.40
2019-04-20T12:16:39.616Z,35.10
2019-04-20T12:20:05.959Z,35.40
2019-04-20T12:23:30.643Z,35.20
2019-04-20T12:26:56.470Z,32.90
2019-04-20T12:30:21.722Z,32.80
2019-04-20T12:33:46.466Z,32.70
2019-04-20T12:37:11.207Z,31.70
2019-04-20T12:40:39.948Z,31.60
2019-04-20T12:44:05.693Z,32.30
2019-04-20T12:47:29.860Z,30.00
2019-04-20T12:50:55.327Z,27.70
2019-04-20T12:54:20.639Z,27.40
2019-04-20T12:57:44.776Z,27.80
2019-04-20T13:01:10.014Z,28.40
2019-04-20T13:04:35.210Z,28.50
2019-04-20T13:08:01.330Z,28.60
2019-04-20T13:11:26.697Z,28.70
2019-04-20T13:15:08.535Z,28.90
2019-04-20T13:18:43.722Z,27.50
2019-04-20T13:22:07.680Z,26.60
2019-04-20T13:25:34.952Z,26.40
2019-04-20T13:29:00.998Z,26.20
2019-04-20T13:32:25.684Z,25.60
2019-04-20T13:35:50.165Z,25.90
2019-04-20T13:39:14.592Z,25.80
2019-04-20T13:42:39.097Z,25.00
2019-04-20T13:46:04.914Z,24.80
2019-04-20T13:49:29.191Z,24.40
2019-04-20T13:52:53.147Z,25.20
2019-04-20T13:56:19.466Z,25.10
2019-04-20T13:59:46.139Z,24.50
2019-04-20T14:03:11.716Z,23.80
2019-04-20T14:06:35.621Z,23.40
2019-04-20T14:10:00.032Z,23.10
2019-04-20T14:13:35.271Z,22.80
2019-04-20T14:16:52.920Z,22.80
2019-04-20T14:20:20.188Z,22.60
2019-04-20T14:23:43.253Z,22.40
2019-04-20T14:27:08.711Z,22.60
2019-04-20T14:30:33.075Z,22.30
2019-04-20T14:33:57.257Z,22.40
2019-04-20T14:37:21.125Z,22.10
2019-04-20T14:40:46.343Z,22.00
2019-04-20T14:44:10.339Z,21.80
2019-04-20T14:47:36.109Z,22.30
2019-04-20T14:51:01.293Z,22.30
2019-04-20T14:54:27.433Z,22.10
2019-04-20T14:57:51.566Z,21.70
2019-04-20T15:01:18.354Z,21.10
2019-04-20T15:04:43.246Z,20.80
2019-04-20T15:08:07.248Z,20.70
2019-04-20T15:11:31.024Z,20.50
2019-04-20T15:14:56.571Z,20.60
2019-04-20T15:18:31.516Z,20.60
2019-04-20T15:22:03.273Z,20.70
2019-04-20T15:25:27.456Z,20.80
2019-04-20T15:28:52.925Z,21.10
2019-04-20T15:32:16.837Z,21.10
2019-04-20T15:35:41.991Z,21.00
2019-04-20T15:39:07.658Z,20.80
2019-04-20T15:42:33.072Z,20.70
2019-04-20T15:45:57.376Z,20.40
2019-04-20T15:49:22.103Z,20.10
2019-04-20T15:52:50.888Z,19.70
2019-04-20T15:56:11.932Z,19.40
2019-04-20T15:59:36.393Z,18.90
2019-04-20T16:03:03.239Z,18.60
2019-04-20T16:06:27.411Z,18.50
2019-04-20T16:09:51.692Z,18.30
2019-04-20T16:13:22.156Z,18.00
2019-04-20T16:16:42.382Z,17.80
2019-04-20T16:20:13.512Z,17.60
2019-04-20T16:23:34.684Z,17.40
2019-04-20T16:27:17.811Z,17.30
2019-04-20T16:30:43.370Z,17.20
2019-04-20T16:34:07.698Z,17.10
2019-04-20T16:37:32.708Z,16.90
2019-04-20T16:40:56.716Z,16.70
2019-04-20T16:44:21.078Z,16.60
2019-04-20T16:47:46.272Z,16.40
2019-04-20T16:51:10.973Z,16.30
2019-04-20T16:54:37.554Z,16.10
2019-04-20T16:58:01.736Z,15.90
2019-04-20T17:01:25.875Z,15.80
2019-04-20T17:04:52.046Z,15.60
2019-04-20T17:08:16.717Z,15.50
2019-04-20T17:11:41.552Z,15.40
2019-04-20T17:15:10.229Z,15.20
2019-04-20T17:22:05.768Z,14.80
2019-04-20T17:25:30.189Z,14.60
2019-04-20T17:29:01.919Z,14.50
2019-04-20T17:32:27.600Z,14.30
2019-04-20T17:36:01.420Z,14.20
2019-04-20T17:39:29.994Z,14.00
2019-04-20T17:42:53.192Z,13.80
2019-04-20T17:46:22.513Z,13.60
2019-04-20T17:49:51.287Z,13.40
2019-04-20T17:53:13.716Z,13.30
2019-04-20T17:56:26.680Z,13.10
2019-04-20T17:59:57.985Z,12.80
2019-04-20T18:03:59.009Z,12.70
2019-04-20T18:06:57.943Z,12.50
2019-04-20T18:10:30.288Z,12.30
2019-04-20T18:13:40.040Z,12.10
2019-04-20T18:17:32.619Z,11.90
2019-04-20T18:21:03.197Z,11.70
2019-04-20T18:24:50.745Z,11.50
2019-04-20T18:28:04.412Z,11.30
2019-04-20T18:31:20.017Z,11.20
2019-04-20T18:34:55.580Z,11.00
2019-04-20T18:38:18.450Z,10.90
2019-04-20T18:41:48.657Z,10.70
2019-04-20T18:45:28.500Z,10.70
2019-04-20T18:48:57.019Z,10.60
2019-04-20T18:52:00.036Z,10.60
2019-04-20T18:55:34.235Z,10.50
2019-04-20T18:58:49.649Z,10.40
2019-04-20T19:02:22.601Z,10.20
2019-04-20T19:05:39.899Z,10.10
2019-04-20T19:09:09.543Z,10.10
2019-04-20T19:12:41.424Z,10.00
2019-04-20T19:16:14.762Z,9.90
2019-04-20T19:19:50.961Z,9.90
2019-04-20T19:23:11.624Z,9.80
2019-04-20T19:26:38.437Z,9.80
2019-04-20T19:30:15.220Z,9.70
2019-04-20T19:33:37.488Z,9.70
2019-04-20T19:37:06.314Z,9.60
2019-04-20T19:40:31.122Z,9.60
2019-04-20T19:43:54.988Z,9.50
2019-04-20T19:47:28.429Z,9.50
2019-04-20T19:51:04.157Z,9.40
2019-04-20T19:54:24.210Z,9.40
2019-04-20T19:57:45.350Z,9.40
2019-04-20T20:00:55.784Z,9.40
2019-04-20T20:04:19.590Z,9.40
2019-04-20T20:07:47.468Z,9.30
2019-04-20T20:11:21.714Z,9.20
2019-04-20T20:14:39.737Z,9.10
2019-04-20T20:18:19.339Z,9.10
2019-04-20T20:21:39.962Z,9.10
2019-04-20T20:24:52.558Z,9.00
2019-04-20T20:28:29.903Z,8.90
2019-04-20T20:32:01.973Z,8.90
2019-04-20T20:35:16.727Z,8.80
2019-04-20T20:38:39.986Z,8.80
2019-04-20T20:42:12.892Z,8.80
2019-04-20T20:45:33.670Z,8.70
2019-04-20T20:49:09.415Z,8.70
2019-04-20T20:52:31.539Z,8.60
2019-04-20T20:55:47.636Z,8.60
2019-04-20T20:59:13.992Z,8.60
2019-04-20T21:02:45.877Z,8.50
2019-04-20T21:05:59.991Z,8.40
2019-04-20T21:09:25.672Z,8.30
2019-04-20T21:12:55.502Z,8.30
2019-04-20T21:16:20.329Z,8.30
2019-04-20T21:19:59.384Z,8.20
2019-04-20T21:23:22.492Z,8.10
2019-04-20T21:26:37.625Z,8.10
2019-04-20T21:30:00.514Z,8.10
2019-04-20T21:33:28.900Z,8.10
2019-04-20T21:36:50.668Z,8.10
2019-04-20T21:40:23.525Z,7.90
2019-04-20T21:43:42.927Z,7.90
2019-04-20T21:47:07.196Z,7.90
2019-04-20T21:50:54.550Z,8.00
2019-04-20T21:53:58.707Z,7.90
2019-04-20T21:57:22.349Z,7.90
2019-04-20T22:01:07.255Z,7.90
2019-04-20T22:04:21.577Z,7.80
2019-04-20T22:07:46.398Z,7.80
2019-04-20T22:11:11.699Z,7.70
2019-04-20T22:14:35.791Z,7.70
2019-04-20T22:18:09.188Z,7.50
2019-04-20T22:21:38.483Z,7.50
2019-04-20T22:25:08.226Z,7.50
2019-04-20T22:28:18.090Z,7.40
2019-04-20T22:31:45.194Z,7.50
2019-04-20T22:35:12.431Z,7.40
2019-04-20T22:38:56.194Z,7.40
2019-04-20T22:42:18.716Z,7.40
2019-04-20T22:45:47.462Z,7.40
2019-04-20T22:49:28.374Z,7.30
2019-04-20T22:52:44.369Z,7.30
2019-04-20T22:56:19.701Z,7.30
2019-04-20T22:59:38.352Z,7.30
2019-04-20T23:02:52.239Z,7.30
2019-04-20T23:06:16.641Z,7.30
2019-04-20T23:09:48.681Z,7.30
2019-04-20T23:13:05.813Z,7.30
2019-04-20T23:16:37.887Z,7.20
2019-04-20T23:19:59.277Z,7.30
2019-04-20T23:23:25.453Z,7.30
2019-04-20T23:26:47.654Z,7.40
2019-04-20T23:30:21.286Z,7.50
2019-04-20T23:33:38.095Z,7.40
2019-04-20T23:37:03.001Z,7.40
2019-04-20T23:40:27.773Z,7.30
2019-04-20T23:44:01.901Z,7.30
2019-04-20T23:47:22.053Z,7.30
2019-04-20T23:51:01.230Z,7.20
2019-04-20T23:54:19.963Z,7.20
2019-04-20T23:57:39.709Z,7.30
